sensor_id;sensor_type;location;lat;lon;timestamp;P1;durP1;ratioP1;P2;durP2;ratioP2
5977;SDS011;3015;51.390;12.256;2022-07-04T00:00:55;4.00;;;3.80;;
5977;SDS011;3015;51.390;12.256;2022-07-04T00:03:20;4.20;;;3.83;;
5977;SDS011;3015;51.390;12.256;2022-07-04T00:05:46;4.03;;;3.83;;
5977;SDS011;3015;51.390;12.256;2022-07-04T00:08:12;4.37;;;4.17;;
5977;SDS011;3015;51.390;12.256;2022-07-04T00:10:38;4.40;;;4.20;;
5977;SDS011;3015;51.390;12.256;2022-07-04T00:13:03;4.47;;;4.17;;
5977;SDS011;3015;51.390;12.256;2022-07-04T00:15:30;5.60;;;5.00;;
5977;SDS011;3015;51.390;12.256;2022-07-04T00:17:56;5.60;;;4.80;;
5977;SDS011;3015;51.390;12.256;2022-07-04T00:20:21;5.30;;;5.00;;
5977;SDS011;3015;51.390;12.256;2022-07-04T00:22:47;5.30;;;5.00;;
5977;SDS011;3015;51.390;12.256;2022-07-04T00:25:13;6.30;;;5.70;;
5977;SDS011;3015;51.390;12.256;2022-07-04T00:27:38;6.57;;;6.10;;
5977;SDS011;3015;51.390;12.256;2022-07-04T00:30:04;11.70;;;10.70;;
5977;SDS011;3015;51.390;12.256;2022-07-04T00:32:30;11.77;;;10.60;;
5977;SDS011;3015;51.390;12.256;2022-07-04T00:34:56;10.57;;;9.77;;
5977;SDS011;3015;51.390;12.256;2022-07-04T00:37:22;10.33;;;9.43;;
5977;SDS011;3015;51.390;12.256;2022-07-04T00:39:47;8.67;;;7.90;;
5977;SDS011;3015;51.390;12.256;2022-07-04T00:42:13;8.17;;;7.60;;
5977;SDS011;3015;51.390;12.256;2022-07-04T00:44:39;7.80;;;7.20;;
5977;SDS011;3015;51.390;12.256;2022-07-04T00:47:05;7.57;;;6.97;;
5977;SDS011;3015;51.390;12.256;2022-07-04T00:49:32;7.00;;;6.60;;
5977;SDS011;3015;51.390;12.256;2022-07-04T00:51:58;7.40;;;6.90;;
5977;SDS011;3015;51.390;12.256;2022-07-04T00:54:25;8.30;;;7.70;;
5977;SDS011;3015;51.390;12.256;2022-07-04T00:56:53;7.07;;;6.47;;
5977;SDS011;3015;51.390;12.256;2022-07-04T00:59:20;7.70;;;7.10;;
5977;SDS011;3015;51.390;12.256;2022-07-04T01:01:47;6.77;;;6.27;;
5977;SDS011;3015;51.390;12.256;2022-07-04T01:04:13;7.00;;;6.60;;
5977;SDS011;3015;51.390;12.256;2022-07-04T01:06:39;6.93;;;6.53;;
5977;SDS011;3015;51.390;12.256;2022-07-04T01:09:05;7.60;;;7.10;;
5977;SDS011;3015;51.390;12.256;2022-07-04T01:11:31;7.50;;;7.10;;
5977;SDS011;3015;51.390;12.256;2022-07-04T01:13:57;6.30;;;6.00;;
5977;SDS011;3015;51.390;12.256;2022-07-04T01:16:27;7.30;;;6.80;;
5977;SDS011;3015;51.390;12.256;2022-07-04T01:18:53;6.80;;;6.27;;
5977;SDS011;3015;51.390;12.256;2022-07-04T01:21:19;7.80;;;7.30;;
5977;SDS011;3015;51.390;12.256;2022-07-04T01:23:46;6.97;;;6.53;;
5977;SDS011;3015;51.390;12.256;2022-07-04T01:26:11;7.80;;;7.30;;
5977;SDS011;3015;51.390;12.256;2022-07-04T01:28:37;6.53;;;6.23;;
5977;SDS011;3015;51.390;12.256;2022-07-04T01:31:03;8.00;;;7.50;;
5977;SDS011;3015;51.390;12.256;2022-07-04T01:33:29;7.60;;;6.90;;
5977;SDS011;3015;51.390;12.256;2022-07-04T01:35:55;7.90;;;7.20;;
5977;SDS011;3015;51.390;12.256;2022-07-04T01:38:21;7.40;;;6.90;;
5977;SDS011;3015;51.390;12.256;2022-07-04T01:40:46;7.00;;;6.30;;
5977;SDS011;3015;51.390;12.256;2022-07-04T01:43:12;7.57;;;6.97;;
5977;SDS011;3015;51.390;12.256;2022-07-04T01:45:38;7.23;;;6.60;;
5977;SDS011;3015;51.390;12.256;2022-07-04T01:48:08;7.17;;;6.77;;
5977;SDS011;3015;51.390;12.256;2022-07-04T01:50:35;7.27;;;6.70;;
5977;SDS011;3015;51.390;12.256;2022-07-04T01:53:02;7.90;;;6.93;;
5977;SDS011;3015;51.390;12.256;2022-07-04T01:55:28;7.97;;;7.47;;
5977;SDS011;3015;51.390;12.256;2022-07-04T01:57:54;8.80;;;8.30;;
5977;SDS011;3015;51.390;12.256;2022-07-04T02:00:19;8.30;;;7.80;;
5977;SDS011;3015;51.390;12.256;2022-07-04T02:03:04;8.03;;;7.53;;
5977;SDS011;3015;51.390;12.256;2022-07-04T02:05:29;7.07;;;6.67;;
5977;SDS011;3015;51.390;12.256;2022-07-04T02:07:55;8.40;;;7.80;;
5977;SDS011;3015;51.390;12.256;2022-07-04T02:10:21;8.40;;;7.80;;
5977;SDS011;3015;51.390;12.256;2022-07-04T02:12:47;8.13;;;7.50;;
5977;SDS011;3015;51.390;12.256;2022-07-04T02:15:28;8.23;;;7.50;;
5977;SDS011;3015;51.390;12.256;2022-07-04T02:18:02;8.87;;;8.07;;
5977;SDS011;3015;51.390;12.256;2022-07-04T02:20:29;8.33;;;7.83;;
5977;SDS011;3015;51.390;12.256;2022-07-04T02:22:55;8.17;;;7.67;;
5977;SDS011;3015;51.390;12.256;2022-07-04T02:25:21;9.00;;;8.50;;
5977;SDS011;3015;51.390;12.256;2022-07-04T02:27:46;8.97;;;8.37;;
5977;SDS011;3015;51.390;12.256;2022-07-04T02:30:12;9.90;;;9.20;;
5977;SDS011;3015;51.390;12.256;2022-07-04T02:32:38;8.00;;;7.40;;
5977;SDS011;3015;51.390;12.256;2022-07-04T02:35:05;8.73;;;7.93;;
5977;SDS011;3015;51.390;12.256;2022-07-04T02:37:31;8.60;;;8.00;;
5977;SDS011;3015;51.390;12.256;2022-07-04T02:39:57;9.27;;;8.67;;
5977;SDS011;3015;51.390;12.256;2022-07-04T02:42:23;8.40;;;7.90;;
5977;SDS011;3015;51.390;12.256;2022-07-04T02:44:49;8.87;;;8.27;;
5977;SDS011;3015;51.390;12.256;2022-07-04T02:47:15;7.97;;;7.40;;
5977;SDS011;3015;51.390;12.256;2022-07-04T02:49:41;9.03;;;8.43;;
5977;SDS011;3015;51.390;12.256;2022-07-04T02:52:07;7.90;;;7.30;;
5977;SDS011;3015;51.390;12.256;2022-07-04T02:54:33;8.57;;;8.07;;
5977;SDS011;3015;51.390;12.256;2022-07-04T02:56:58;8.40;;;7.70;;
5977;SDS011;3015;51.390;12.256;2022-07-04T02:59:24;8.90;;;8.23;;
5977;SDS011;3015;51.390;12.256;2022-07-04T03:01:50;8.40;;;7.90;;
5977;SDS011;3015;51.390;12.256;2022-07-04T03:04:15;8.40;;;7.90;;
5977;SDS011;3015;51.390;12.256;2022-07-04T03:06:41;8.37;;;7.87;;
5977;SDS011;3015;51.390;12.256;2022-07-04T03:09:08;9.47;;;8.67;;
5977;SDS011;3015;51.390;12.256;2022-07-04T03:11:33;8.37;;;7.67;;
5977;SDS011;3015;51.390;12.256;2022-07-04T03:13:59;8.60;;;8.00;;
5977;SDS011;3015;51.390;12.256;2022-07-04T03:16:25;8.33;;;7.77;;
5977;SDS011;3015;51.390;12.256;2022-07-04T03:18:50;7.80;;;7.30;;
5977;SDS011;3015;51.390;12.256;2022-07-04T03:21:16;6.73;;;6.33;;
5977;SDS011;3015;51.390;12.256;2022-07-04T03:23:41;8.37;;;7.57;;
5977;SDS011;3015;51.390;12.256;2022-07-04T03:26:07;7.47;;;6.77;;
5977;SDS011;3015;51.390;12.256;2022-07-04T03:28:34;6.70;;;6.27;;
5977;SDS011;3015;51.390;12.256;2022-07-04T03:31:00;7.13;;;6.63;;
5977;SDS011;3015;51.390;12.256;2022-07-04T03:33:26;6.40;;;6.07;;
5977;SDS011;3015;51.390;12.256;2022-07-04T03:35:51;7.43;;;6.73;;
5977;SDS011;3015;51.390;12.256;2022-07-04T03:38:17;6.30;;;5.97;;
5977;SDS011;3015;51.390;12.256;2022-07-04T03:40:42;6.23;;;5.83;;
5977;SDS011;3015;51.390;12.256;2022-07-04T03:43:08;6.50;;;6.00;;
5977;SDS011;3015;51.390;12.256;2022-07-04T03:45:34;7.30;;;6.80;;
5977;SDS011;3015;51.390;12.256;2022-07-04T03:47:59;7.77;;;7.27;;
5977;SDS011;3015;51.390;12.256;2022-07-04T03:50:29;7.77;;;7.27;;
5977;SDS011;3015;51.390;12.256;2022-07-04T03:52:54;7.00;;;6.60;;
5977;SDS011;3015;51.390;12.256;2022-07-04T03:55:20;7.57;;;6.90;;
5977;SDS011;3015;51.390;12.256;2022-07-04T03:57:46;6.47;;;6.17;;
5977;SDS011;3015;51.390;12.256;2022-07-04T04:00:11;5.43;;;5.17;;
5977;SDS011;3015;51.390;12.256;2022-07-04T04:02:38;6.40;;;6.10;;
5977;SDS011;3015;51.390;12.256;2022-07-04T04:05:04;6.10;;;5.73;;
5977;SDS011;3015;51.390;12.256;2022-07-04T04:07:49;6.30;;;5.70;;
5977;SDS011;3015;51.390;12.256;2022-07-04T04:10:15;6.13;;;5.63;;
5977;SDS011;3015;51.390;12.256;2022-07-04T04:12:40;6.10;;;5.63;;
5977;SDS011;3015;51.390;12.256;2022-07-04T04:15:06;5.63;;;5.40;;
5977;SDS011;3015;51.390;12.256;2022-07-04T04:17:32;5.77;;;5.27;;
5977;SDS011;3015;51.390;12.256;2022-07-04T04:19:58;5.70;;;5.30;;
5977;SDS011;3015;51.390;12.256;2022-07-04T04:22:23;5.43;;;5.23;;
5977;SDS011;3015;51.390;12.256;2022-07-04T04:24:49;5.27;;;5.03;;
5977;SDS011;3015;51.390;12.256;2022-07-04T04:27:15;4.80;;;4.60;;
5977;SDS011;3015;51.390;12.256;2022-07-04T04:29:40;5.00;;;4.70;;
5977;SDS011;3015;51.390;12.256;2022-07-04T04:32:06;5.47;;;5.07;;
5977;SDS011;3015;51.390;12.256;2022-07-04T04:34:32;5.50;;;5.13;;
5977;SDS011;3015;51.390;12.256;2022-07-04T04:36:58;5.07;;;4.70;;
5977;SDS011;3015;51.390;12.256;2022-07-04T04:39:25;4.70;;;4.40;;
5977;SDS011;3015;51.390;12.256;2022-07-04T04:41:51;5.03;;;4.63;;
5977;SDS011;3015;51.390;12.256;2022-07-04T04:44:17;4.50;;;4.20;;
5977;SDS011;3015;51.390;12.256;2022-07-04T04:46:44;5.57;;;5.27;;
5977;SDS011;3015;51.390;12.256;2022-07-04T04:49:10;4.87;;;4.27;;
5977;SDS011;3015;51.390;12.256;2022-07-04T04:51:36;4.27;;;3.97;;
5977;SDS011;3015;51.390;12.256;2022-07-04T04:54:01;4.10;;;3.90;;
5977;SDS011;3015;51.390;12.256;2022-07-04T04:56:27;3.90;;;3.70;;
5977;SDS011;3015;51.390;12.256;2022-07-04T04:58:53;3.97;;;3.67;;
5977;SDS011;3015;51.390;12.256;2022-07-04T05:01:18;3.83;;;3.53;;
5977;SDS011;3015;51.390;12.256;2022-07-04T05:03:44;3.67;;;3.47;;
5977;SDS011;3015;51.390;12.256;2022-07-04T05:06:10;4.80;;;3.73;;
5977;SDS011;3015;51.390;12.256;2022-07-04T05:08:35;3.80;;;3.60;;
5977;SDS011;3015;51.390;12.256;2022-07-04T05:11:01;4.53;;;3.77;;
5977;SDS011;3015;51.390;12.256;2022-07-04T05:13:27;3.73;;;3.53;;
5977;SDS011;3015;51.390;12.256;2022-07-04T05:15:52;4.13;;;3.93;;
5977;SDS011;3015;51.390;12.256;2022-07-04T05:18:18;4.97;;;3.63;;
5977;SDS011;3015;51.390;12.256;2022-07-04T05:20:43;3.90;;;3.60;;
5977;SDS011;3015;51.390;12.256;2022-07-04T05:23:09;7.73;;;3.77;;
5977;SDS011;3015;51.390;12.256;2022-07-04T05:25:35;4.37;;;4.00;;
5977;SDS011;3015;51.390;12.256;2022-07-04T05:28:00;3.80;;;3.50;;
5977;SDS011;3015;51.390;12.256;2022-07-04T05:30:26;3.03;;;2.83;;
5977;SDS011;3015;51.390;12.256;2022-07-04T05:32:52;2.60;;;2.50;;
5977;SDS011;3015;51.390;12.256;2022-07-04T05:35:17;5.30;;;3.07;;
5977;SDS011;3015;51.390;12.256;2022-07-04T05:37:43;3.20;;;3.00;;
5977;SDS011;3015;51.390;12.256;2022-07-04T05:40:09;3.50;;;3.00;;
5977;SDS011;3015;51.390;12.256;2022-07-04T05:42:36;3.43;;;3.20;;
5977;SDS011;3015;51.390;12.256;2022-07-04T05:45:02;3.37;;;3.17;;
5977;SDS011;3015;51.390;12.256;2022-07-04T05:47:28;3.30;;;3.00;;
5977;SDS011;3015;51.390;12.256;2022-07-04T05:49:53;2.77;;;2.67;;
5977;SDS011;3015;51.390;12.256;2022-07-04T05:52:19;2.70;;;2.60;;
5977;SDS011;3015;51.390;12.256;2022-07-04T05:54:45;3.37;;;2.77;;
5977;SDS011;3015;51.390;12.256;2022-07-04T05:57:10;3.30;;;3.10;;
5977;SDS011;3015;51.390;12.256;2022-07-04T05:59:36;2.90;;;2.70;;
5977;SDS011;3015;51.390;12.256;2022-07-04T06:02:02;2.77;;;2.63;;
5977;SDS011;3015;51.390;12.256;2022-07-04T06:04:28;2.80;;;2.70;;
5977;SDS011;3015;51.390;12.256;2022-07-04T06:06:53;2.70;;;2.37;;
5977;SDS011;3015;51.390;12.256;2022-07-04T06:09:19;2.50;;;2.23;;
5977;SDS011;3015;51.390;12.256;2022-07-04T06:11:45;3.17;;;2.90;;
5977;SDS011;3015;51.390;12.256;2022-07-04T06:14:10;2.47;;;2.37;;
5977;SDS011;3015;51.390;12.256;2022-07-04T06:16:36;2.90;;;2.80;;
5977;SDS011;3015;51.390;12.256;2022-07-04T06:19:02;2.43;;;2.27;;
5977;SDS011;3015;51.390;12.256;2022-07-04T06:21:28;2.73;;;2.53;;
5977;SDS011;3015;51.390;12.256;2022-07-04T06:23:53;2.97;;;2.77;;
5977;SDS011;3015;51.390;12.256;2022-07-04T06:26:19;2.77;;;2.60;;
5977;SDS011;3015;51.390;12.256;2022-07-04T06:28:45;2.87;;;2.57;;
5977;SDS011;3015;51.390;12.256;2022-07-04T06:31:11;2.40;;;2.20;;
5977;SDS011;3015;51.390;12.256;2022-07-04T06:33:37;2.67;;;2.47;;
5977;SDS011;3015;51.390;12.256;2022-07-04T06:36:22;2.73;;;2.40;;
5977;SDS011;3015;51.390;12.256;2022-07-04T06:38:48;2.40;;;2.30;;
5977;SDS011;3015;51.390;12.256;2022-07-04T06:41:14;2.10;;;2.00;;
5977;SDS011;3015;51.390;12.256;2022-07-04T06:43:40;2.30;;;2.10;;
5977;SDS011;3015;51.390;12.256;2022-07-04T06:46:05;3.53;;;2.50;;
5977;SDS011;3015;51.390;12.256;2022-07-04T06:48:31;2.70;;;2.50;;
5977;SDS011;3015;51.390;12.256;2022-07-04T06:50:57;2.50;;;2.30;;
5977;SDS011;3015;51.390;12.256;2022-07-04T06:53:23;2.37;;;2.20;;
5977;SDS011;3015;51.390;12.256;2022-07-04T06:55:48;3.00;;;2.70;;
5977;SDS011;3015;51.390;12.256;2022-07-04T06:58:14;2.17;;;1.97;;
5977;SDS011;3015;51.390;12.256;2022-07-04T07:00:40;2.10;;;2.00;;
5977;SDS011;3015;51.390;12.256;2022-07-04T07:03:09;2.33;;;2.23;;
5977;SDS011;3015;51.390;12.256;2022-07-04T07:05:35;2.30;;;2.20;;
5977;SDS011;3015;51.390;12.256;2022-07-04T07:08:04;2.30;;;2.10;;
5977;SDS011;3015;51.390;12.256;2022-07-04T07:10:30;2.53;;;2.17;;
5977;SDS011;3015;51.390;12.256;2022-07-04T07:12:57;2.03;;;1.93;;
5977;SDS011;3015;51.390;12.256;2022-07-04T07:15:24;6.60;;;2.40;;
5977;SDS011;3015;51.390;12.256;2022-07-04T07:17:49;2.70;;;2.50;;
5977;SDS011;3015;51.390;12.256;2022-07-04T07:20:15;4.90;;;2.40;;
5977;SDS011;3015;51.390;12.256;2022-07-04T07:22:42;2.90;;;2.40;;
5977;SDS011;3015;51.390;12.256;2022-07-04T07:25:08;2.40;;;2.20;;
5977;SDS011;3015;51.390;12.256;2022-07-04T07:27:34;2.20;;;2.10;;
5977;SDS011;3015;51.390;12.256;2022-07-04T07:30:00;2.53;;;2.33;;
5977;SDS011;3015;51.390;12.256;2022-07-04T07:32:26;2.20;;;2.10;;
5977;SDS011;3015;51.390;12.256;2022-07-04T07:34:52;2.00;;;1.90;;
5977;SDS011;3015;51.390;12.256;2022-07-04T07:37:17;2.93;;;2.63;;
5977;SDS011;3015;51.390;12.256;2022-07-04T07:39:45;2.20;;;2.00;;
5977;SDS011;3015;51.390;12.256;2022-07-04T07:42:10;2.60;;;2.40;;
5977;SDS011;3015;51.390;12.256;2022-07-04T07:44:36;2.17;;;2.07;;
5977;SDS011;3015;51.390;12.256;2022-07-04T07:47:02;2.30;;;2.20;;
5977;SDS011;3015;51.390;12.256;2022-07-04T07:49:28;2.90;;;2.37;;
5977;SDS011;3015;51.390;12.256;2022-07-04T07:51:53;2.20;;;2.07;;
5977;SDS011;3015;51.390;12.256;2022-07-04T07:54:21;2.70;;;2.50;;
5977;SDS011;3015;51.390;12.256;2022-07-04T07:56:46;2.40;;;2.30;;
5977;SDS011;3015;51.390;12.256;2022-07-04T07:59:12;2.30;;;2.20;;
5977;SDS011;3015;51.390;12.256;2022-07-04T08:01:37;2.37;;;2.20;;
5977;SDS011;3015;51.390;12.256;2022-07-04T08:04:03;2.53;;;2.33;;
5977;SDS011;3015;51.390;12.256;2022-07-04T08:06:47;2.90;;;2.50;;
5977;SDS011;3015;51.390;12.256;2022-07-04T08:09:13;2.87;;;2.67;;
5977;SDS011;3015;51.390;12.256;2022-07-04T08:11:40;2.57;;;2.37;;
5977;SDS011;3015;51.390;12.256;2022-07-04T08:14:06;2.50;;;2.20;;
5977;SDS011;3015;51.390;12.256;2022-07-04T08:16:32;2.30;;;2.20;;
5977;SDS011;3015;51.390;12.256;2022-07-04T08:18:58;3.07;;;2.87;;
5977;SDS011;3015;51.390;12.256;2022-07-04T08:21:24;2.43;;;2.33;;
5977;SDS011;3015;51.390;12.256;2022-07-04T08:23:50;3.47;;;2.20;;
5977;SDS011;3015;51.390;12.256;2022-07-04T08:26:16;2.70;;;2.50;;
5977;SDS011;3015;51.390;12.256;2022-07-04T08:28:41;2.13;;;2.03;;
5977;SDS011;3015;51.390;12.256;2022-07-04T08:31:07;2.30;;;2.20;;
5977;SDS011;3015;51.390;12.256;2022-07-04T08:33:32;2.57;;;2.37;;
5977;SDS011;3015;51.390;12.256;2022-07-04T08:35:58;2.33;;;2.17;;
5977;SDS011;3015;51.390;12.256;2022-07-04T08:38:24;2.00;;;1.90;;
5977;SDS011;3015;51.390;12.256;2022-07-04T08:40:50;1.90;;;1.80;;
5977;SDS011;3015;51.390;12.256;2022-07-04T08:43:22;1.70;;;1.60;;
5977;SDS011;3015;51.390;12.256;2022-07-04T08:45:49;2.03;;;1.83;;
5977;SDS011;3015;51.390;12.256;2022-07-04T08:48:24;2.50;;;2.30;;
5977;SDS011;3015;51.390;12.256;2022-07-04T08:50:54;2.20;;;2.10;;
5977;SDS011;3015;51.390;12.256;2022-07-04T08:53:28;1.83;;;1.73;;
5977;SDS011;3015;51.390;12.256;2022-07-04T08:55:56;1.93;;;1.83;;
5977;SDS011;3015;51.390;12.256;2022-07-04T08:58:43;1.97;;;1.87;;
5977;SDS011;3015;51.390;12.256;2022-07-04T09:01:11;2.00;;;1.90;;
5977;SDS011;3015;51.390;12.256;2022-07-04T09:03:43;1.80;;;1.70;;
5977;SDS011;3015;51.390;12.256;2022-07-04T09:06:10;2.63;;;1.80;;
5977;SDS011;3015;51.390;12.256;2022-07-04T09:08:37;1.83;;;1.73;;
5977;SDS011;3015;51.390;12.256;2022-07-04T09:11:03;1.60;;;1.50;;
5977;SDS011;3015;51.390;12.256;2022-07-04T09:13:31;2.13;;;1.93;;
5977;SDS011;3015;51.390;12.256;2022-07-04T09:15:57;2.10;;;2.00;;
5977;SDS011;3015;51.390;12.256;2022-07-04T09:18:27;1.60;;;1.50;;
5977;SDS011;3015;51.390;12.256;2022-07-04T09:20:53;2.90;;;1.70;;
5977;SDS011;3015;51.390;12.256;2022-07-04T09:23:28;2.07;;;1.83;;
5977;SDS011;3015;51.390;12.256;2022-07-04T09:28:45;2.53;;;2.10;;
5977;SDS011;3015;51.390;12.256;2022-07-04T09:31:22;1.73;;;1.63;;
5977;SDS011;3015;51.390;12.256;2022-07-04T09:36:18;3.27;;;1.80;;
5977;SDS011;3015;51.390;12.256;2022-07-04T09:38:45;3.87;;;2.03;;
5977;SDS011;3015;51.390;12.256;2022-07-04T09:41:28;1.80;;;1.70;;
5977;SDS011;3015;51.390;12.256;2022-07-04T09:44:06;2.07;;;1.97;;
5977;SDS011;3015;51.390;12.256;2022-07-04T09:46:32;2.33;;;2.17;;
5977;SDS011;3015;51.390;12.256;2022-07-04T09:48:58;2.33;;;2.10;;
5977;SDS011;3015;51.390;12.256;2022-07-04T09:56:45;2.60;;;2.40;;
5977;SDS011;3015;51.390;12.256;2022-07-04T09:59:12;2.07;;;1.97;;
5977;SDS011;3015;51.390;12.256;2022-07-04T10:01:38;1.70;;;1.60;;
5977;SDS011;3015;51.390;12.256;2022-07-04T10:04:05;1.90;;;1.80;;
5977;SDS011;3015;51.390;12.256;2022-07-04T10:06:32;1.83;;;1.73;;
5977;SDS011;3015;51.390;12.256;2022-07-04T10:09:15;2.47;;;2.27;;
5977;SDS011;3015;51.390;12.256;2022-07-04T10:11:43;1.77;;;1.67;;
5977;SDS011;3015;51.390;12.256;2022-07-04T10:14:10;2.27;;;2.17;;
5977;SDS011;3015;51.390;12.256;2022-07-04T10:16:38;2.63;;;2.43;;
5977;SDS011;3015;51.390;12.256;2022-07-04T10:19:04;2.13;;;2.03;;
5977;SDS011;3015;51.390;12.256;2022-07-04T10:21:31;2.13;;;2.03;;
5977;SDS011;3015;51.390;12.256;2022-07-04T10:23:58;2.57;;;2.37;;
5977;SDS011;3015;51.390;12.256;2022-07-04T10:26:24;2.33;;;2.13;;
5977;SDS011;3015;51.390;12.256;2022-07-04T10:28:52;2.47;;;2.27;;
5977;SDS011;3015;51.390;12.256;2022-07-04T10:31:18;2.90;;;2.70;;
5977;SDS011;3015;51.390;12.256;2022-07-04T10:33:46;3.27;;;3.07;;
5977;SDS011;3015;51.390;12.256;2022-07-04T10:36:19;2.80;;;2.60;;
5977;SDS011;3015;51.390;12.256;2022-07-04T10:38:52;5.77;;;4.73;;
5977;SDS011;3015;51.390;12.256;2022-07-04T10:41:20;2.80;;;2.60;;
5977;SDS011;3015;51.390;12.256;2022-07-04T10:48:54;2.80;;;2.37;;
5977;SDS011;3015;51.390;12.256;2022-07-04T10:54:06;3.03;;;2.90;;
5977;SDS011;3015;51.390;12.256;2022-07-04T10:56:35;3.00;;;2.80;;
5977;SDS011;3015;51.390;12.256;2022-07-04T11:04:47;2.63;;;2.50;;
5977;SDS011;3015;51.390;12.256;2022-07-04T11:08:06;2.77;;;2.50;;
5977;SDS011;3015;51.390;12.256;2022-07-04T11:17:53;2.90;;;2.60;;
5977;SDS011;3015;51.390;12.256;2022-07-04T11:20:22;4.40;;;3.20;;
5977;SDS011;3015;51.390;12.256;2022-07-04T11:22:48;4.70;;;2.83;;
5977;SDS011;3015;51.390;12.256;2022-07-04T11:25:14;4.33;;;3.03;;
5977;SDS011;3015;51.390;12.256;2022-07-04T11:27:41;3.93;;;2.50;;
5977;SDS011;3015;51.390;12.256;2022-07-04T11:30:08;3.23;;;3.03;;
5977;SDS011;3015;51.390;12.256;2022-07-04T11:32:36;3.77;;;3.20;;
5977;SDS011;3015;51.390;12.256;2022-07-04T11:35:03;4.53;;;3.30;;
5977;SDS011;3015;51.390;12.256;2022-07-04T11:37:30;3.67;;;3.37;;
5977;SDS011;3015;51.390;12.256;2022-07-04T11:39:56;4.03;;;3.57;;
5977;SDS011;3015;51.390;12.256;2022-07-04T11:43:03;4.47;;;4.10;;
5977;SDS011;3015;51.390;12.256;2022-07-04T11:45:47;4.87;;;4.57;;
5977;SDS011;3015;51.390;12.256;2022-07-04T11:48:25;3.80;;;3.50;;
5977;SDS011;3015;51.390;12.256;2022-07-04T11:50:52;3.50;;;3.30;;
5977;SDS011;3015;51.390;12.256;2022-07-04T11:53:19;3.83;;;3.53;;
5977;SDS011;3015;51.390;12.256;2022-07-04T11:55:54;3.53;;;3.20;;
5977;SDS011;3015;51.390;12.256;2022-07-04T11:58:21;3.80;;;3.60;;
5977;SDS011;3015;51.390;12.256;2022-07-04T12:00:47;4.07;;;3.83;;
5977;SDS011;3015;51.390;12.256;2022-07-04T12:03:13;4.40;;;3.10;;
5977;SDS011;3015;51.390;12.256;2022-07-04T12:05:39;3.07;;;2.87;;
5977;SDS011;3015;51.390;12.256;2022-07-04T12:08:04;3.60;;;3.50;;
5977;SDS011;3015;51.390;12.256;2022-07-04T12:10:33;3.10;;;2.90;;
5977;SDS011;3015;51.390;12.256;2022-07-04T12:15:44;3.60;;;3.40;;
5977;SDS011;3015;51.390;12.256;2022-07-04T12:18:15;3.83;;;2.97;;
5977;SDS011;3015;51.390;12.256;2022-07-04T12:20:48;3.30;;;3.10;;
5977;SDS011;3015;51.390;12.256;2022-07-04T12:23:15;3.23;;;3.00;;
5977;SDS011;3015;51.390;12.256;2022-07-04T12:25:43;3.07;;;2.87;;
5977;SDS011;3015;51.390;12.256;2022-07-04T12:28:11;2.70;;;2.60;;
5977;SDS011;3015;51.390;12.256;2022-07-04T12:31:00;3.50;;;3.30;;
5977;SDS011;3015;51.390;12.256;2022-07-04T12:33:26;3.30;;;2.97;;
5977;SDS011;3015;51.390;12.256;2022-07-04T12:36:00;3.50;;;3.20;;
5977;SDS011;3015;51.390;12.256;2022-07-04T12:41:05;3.27;;;2.97;;
5977;SDS011;3015;51.390;12.256;2022-07-04T12:48:55;3.13;;;2.83;;
5977;SDS011;3015;51.390;12.256;2022-07-04T12:53:55;3.50;;;2.63;;
5977;SDS011;3015;51.390;12.256;2022-07-04T12:58:57;5.70;;;2.70;;
5977;SDS011;3015;51.390;12.256;2022-07-04T13:01:23;4.63;;;3.27;;
5977;SDS011;3015;51.390;12.256;2022-07-04T13:03:49;3.47;;;2.57;;
5977;SDS011;3015;51.390;12.256;2022-07-04T13:06:14;2.83;;;2.70;;
5977;SDS011;3015;51.390;12.256;2022-07-04T13:08:40;3.10;;;2.90;;
5977;SDS011;3015;51.390;12.256;2022-07-04T13:11:06;4.67;;;3.00;;
5977;SDS011;3015;51.390;12.256;2022-07-04T13:13:50;6.00;;;3.07;;
5977;SDS011;3015;51.390;12.256;2022-07-04T13:16:15;5.13;;;2.77;;
5977;SDS011;3015;51.390;12.256;2022-07-04T13:18:41;2.70;;;2.60;;
5977;SDS011;3015;51.390;12.256;2022-07-04T13:21:07;3.30;;;3.00;;
5977;SDS011;3015;51.390;12.256;2022-07-04T13:23:32;2.87;;;2.67;;
5977;SDS011;3015;51.390;12.256;2022-07-04T13:25:58;2.60;;;2.50;;
5977;SDS011;3015;51.390;12.256;2022-07-04T13:28:24;3.03;;;2.83;;
5977;SDS011;3015;51.390;12.256;2022-07-04T13:30:49;2.50;;;2.40;;
5977;SDS011;3015;51.390;12.256;2022-07-04T13:33:15;2.60;;;2.50;;
5977;SDS011;3015;51.390;12.256;2022-07-04T13:35:40;4.57;;;2.87;;
5977;SDS011;3015;51.390;12.256;2022-07-04T13:38:07;2.50;;;2.30;;
5977;SDS011;3015;51.390;12.256;2022-07-04T13:40:32;4.73;;;2.93;;
5977;SDS011;3015;51.390;12.256;2022-07-04T13:42:58;3.00;;;2.80;;
5977;SDS011;3015;51.390;12.256;2022-07-04T13:45:24;3.77;;;2.30;;
5977;SDS011;3015;51.390;12.256;2022-07-04T13:47:51;2.57;;;2.40;;
5977;SDS011;3015;51.390;12.256;2022-07-04T13:50:17;4.60;;;2.87;;
5977;SDS011;3015;51.390;12.256;2022-07-04T13:52:43;4.53;;;2.20;;
5977;SDS011;3015;51.390;12.256;2022-07-04T13:55:09;2.20;;;2.10;;
5977;SDS011;3015;51.390;12.256;2022-07-04T13:57:35;2.33;;;2.23;;
5977;SDS011;3015;51.390;12.256;2022-07-04T14:00:02;2.47;;;2.37;;
5977;SDS011;3015;51.390;12.256;2022-07-04T14:02:31;3.23;;;2.10;;
5977;SDS011;3015;51.390;12.256;2022-07-04T14:04:57;3.37;;;2.53;;
5977;SDS011;3015;51.390;12.256;2022-07-04T14:07:23;3.30;;;2.10;;
5977;SDS011;3015;51.390;12.256;2022-07-04T14:09:49;1.80;;;1.70;;
5977;SDS011;3015;51.390;12.256;2022-07-04T14:12:15;2.17;;;1.97;;
5977;SDS011;3015;51.390;12.256;2022-07-04T14:14:41;2.00;;;1.90;;
5977;SDS011;3015;51.390;12.256;2022-07-04T14:17:07;2.23;;;2.13;;
5977;SDS011;3015;51.390;12.256;2022-07-04T14:19:33;2.00;;;1.90;;
5977;SDS011;3015;51.390;12.256;2022-07-04T14:21:59;2.40;;;2.30;;
5977;SDS011;3015;51.390;12.256;2022-07-04T14:24:24;2.00;;;1.90;;
5977;SDS011;3015;51.390;12.256;2022-07-04T14:26:51;1.90;;;1.70;;
5977;SDS011;3015;51.390;12.256;2022-07-04T14:29:17;2.10;;;2.00;;
5977;SDS011;3015;51.390;12.256;2022-07-04T14:31:43;2.60;;;2.20;;
5977;SDS011;3015;51.390;12.256;2022-07-04T14:34:09;1.90;;;1.80;;
5977;SDS011;3015;51.390;12.256;2022-07-04T14:36:36;2.20;;;2.10;;
5977;SDS011;3015;51.390;12.256;2022-07-04T14:39:03;2.60;;;2.23;;
5977;SDS011;3015;51.390;12.256;2022-07-04T14:41:29;2.40;;;2.20;;
5977;SDS011;3015;51.390;12.256;2022-07-04T14:43:54;1.90;;;1.80;;
5977;SDS011;3015;51.390;12.256;2022-07-04T14:46:20;4.17;;;1.90;;
5977;SDS011;3015;51.390;12.256;2022-07-04T14:48:45;2.33;;;1.90;;
5977;SDS011;3015;51.390;12.256;2022-07-04T14:51:11;2.40;;;1.83;;
5977;SDS011;3015;51.390;12.256;2022-07-04T14:53:37;2.80;;;2.50;;
5977;SDS011;3015;51.390;12.256;2022-07-04T14:56:03;2.27;;;2.17;;
5977;SDS011;3015;51.390;12.256;2022-07-04T14:58:29;3.27;;;2.40;;
5977;SDS011;3015;51.390;12.256;2022-07-04T15:00:55;1.90;;;1.80;;
5977;SDS011;3015;51.390;12.256;2022-07-04T15:03:21;2.13;;;2.03;;
5977;SDS011;3015;51.390;12.256;2022-07-04T15:05:47;1.93;;;1.83;;
5977;SDS011;3015;51.390;12.256;2022-07-04T15:08:13;3.97;;;2.27;;
5977;SDS011;3015;51.390;12.256;2022-07-04T15:10:38;2.10;;;2.00;;
5977;SDS011;3015;51.390;12.256;2022-07-04T15:13:05;2.50;;;1.87;;
5977;SDS011;3015;51.390;12.256;2022-07-04T15:15:31;2.20;;;1.97;;
5977;SDS011;3015;51.390;12.256;2022-07-04T15:17:56;3.60;;;2.07;;
5977;SDS011;3015;51.390;12.256;2022-07-04T15:20:22;2.10;;;2.00;;
5977;SDS011;3015;51.390;12.256;2022-07-04T15:23:06;2.00;;;1.90;;
5977;SDS011;3015;51.390;12.256;2022-07-04T15:25:50;1.97;;;1.87;;
5977;SDS011;3015;51.390;12.256;2022-07-04T15:28:16;2.07;;;1.97;;
5977;SDS011;3015;51.390;12.256;2022-07-04T15:30:41;3.83;;;2.00;;
5977;SDS011;3015;51.390;12.256;2022-07-04T15:33:07;2.10;;;2.00;;
5977;SDS011;3015;51.390;12.256;2022-07-04T15:35:39;2.13;;;1.93;;
5977;SDS011;3015;51.390;12.256;2022-07-04T15:38:05;2.40;;;2.30;;
5977;SDS011;3015;51.390;12.256;2022-07-04T15:40:31;1.90;;;1.80;;
5977;SDS011;3015;51.390;12.256;2022-07-04T15:42:56;2.07;;;1.97;;
5977;SDS011;3015;51.390;12.256;2022-07-04T15:45:22;2.17;;;2.03;;
5977;SDS011;3015;51.390;12.256;2022-07-04T15:47:48;2.43;;;1.90;;